createdAt,value
2017-08-25T00:00:27.942Z,1011.45
2017-08-25T00:01:27.921Z,1011.42
2017-08-25T00:02:27.907Z,1011.4
2017-08-25T00:03:27.890Z,1011.4
2017-08-25T00:04:27.879Z,1011.4
2017-08-25T00:05:27.863Z,1011.43
2017-08-25T00:06:27.862Z,1011.42
2017-08-25T00:07:27.842Z,1011.42
2017-08-25T00:08:27.824Z,1011.4
2017-08-25T00:09:27.813Z,1011.41
2017-08-25T00:10:27.792Z,1011.37
2017-08-25T00:11:27.783Z,1011.4
2017-08-25T00:12:27.765Z,1011.39
2017-08-25T00:13:27.752Z,1011.42
2017-08-25T00:14:27.741Z,1011.42
2017-08-25T00:15:27.722Z,1011.45
2017-08-25T00:16:27.711Z,1011.43
2017-08-25T00:17:27.691Z,1011.46
2017-08-25T00:18:27.680Z,1011.47
2017-08-25T00:19:27.668Z,1011.44
2017-08-25T00:20:27.650Z,1011.44
2017-08-25T00:21:27.635Z,1011.43
2017-08-25T00:22:27.621Z,1011.46
2017-08-25T00:23:27.611Z,1011.48
2017-08-25T00:24:27.612Z,1011.42
2017-08-25T00:25:27.584Z,1011.44
2017-08-25T00:26:27.568Z,1011.46
2017-08-25T00:27:27.552Z,1011.44
2017-08-25T00:28:27.545Z,1011.43
2017-08-25T00:29:27.521Z,1011.44
2017-08-25T00:30:27.562Z,1011.43
2017-08-25T00:31:27.492Z,1011.46
2017-08-25T00:32:27.478Z,1011.45
2017-08-25T00:33:27.469Z,1011.46
2017-08-25T00:34:27.557Z,1011.46
2017-08-25T00:35:27.433Z,1011.48
2017-08-25T00:36:27.424Z,1011.5
2017-08-25T00:37:27.416Z,1011.46
2017-08-25T00:38:27.492Z,1011.49
2017-08-25T00:39:27.381Z,1011.5
2017-08-25T00:40:27.360Z,1011.51
2017-08-25T00:41:27.366Z,1011.5
2017-08-25T00:42:27.383Z,1011.52
2017-08-25T00:43:27.320Z,1011.51
2017-08-25T00:44:27.352Z,1011.48
2017-08-25T00:45:27.293Z,1011.53
2017-08-25T00:46:27.353Z,1011.49
2017-08-25T00:47:27.260Z,1011.51
2017-08-25T00:48:27.249Z,1011.49
2017-08-25T00:49:27.231Z,1011.5
2017-08-25T00:50:27.220Z,1011.5
2017-08-25T00:51:27.199Z,1011.49
2017-08-25T00:52:27.191Z,1011.51
2017-08-25T00:53:27.173Z,1011.54
2017-08-25T00:54:27.157Z,1011.53
2017-08-25T00:55:27.139Z,1011.54
2017-08-25T00:56:27.127Z,1011.57
2017-08-25T00:57:27.120Z,1011.56
2017-08-25T00:58:27.099Z,1011.56
2017-08-25T00:59:27.090Z,1011.56
2017-08-25T01:00:27.066Z,1011.53
2017-08-25T01:01:27.061Z,1011.52
2017-08-25T01:02:27.036Z,1011.58
2017-08-25T01:03:27.033Z,1011.58
2017-08-25T01:04:27.008Z,1011.53
2017-08-25T01:05:26.992Z,1011.55
2017-08-25T01:06:26.979Z,1011.57
2017-08-25T01:07:26.969Z,1011.57
2017-08-25T01:08:26.944Z,1011.61
2017-08-25T01:09:26.937Z,1011.58
2017-08-25T01:10:26.921Z,1011.59
2017-08-25T01:11:26.908Z,1011.57
2017-08-25T01:12:26.890Z,1011.6
2017-08-25T01:13:26.880Z,1011.62
2017-08-25T01:14:26.860Z,1011.66
2017-08-25T01:15:26.841Z,1011.64
2017-08-25T01:16:26.829Z,1011.63
2017-08-25T01:17:26.817Z,1011.63
2017-08-25T01:18:26.801Z,1011.69
2017-08-25T01:19:26.785Z,1011.65
2017-08-25T01:20:26.766Z,1011.65
2017-08-25T01:21:26.753Z,1011.68
2017-08-25T01:22:26.739Z,1011.68
2017-08-25T01:23:26.722Z,1011.68
2017-08-25T01:24:26.711Z,1011.69
2017-08-25T01:25:26.693Z,1011.67
2017-08-25T01:26:26.678Z,1011.67
2017-08-25T01:27:26.669Z,1011.68
2017-08-25T01:28:26.648Z,1011.7
2017-08-25T01:29:26.632Z,1011.7
2017-08-25T01:30:26.617Z,1011.68
2017-08-25T01:31:26.602Z,1011.72
2017-08-25T01:32:26.585Z,1011.7
2017-08-25T01:33:26.574Z,1011.72
2017-08-25T01:34:26.558Z,1011.71
2017-08-25T01:35:26.542Z,1011.7
2017-08-25T01:36:26.527Z,1011.73
2017-08-25T01:37:26.512Z,1011.7
2017-08-25T01:38:26.495Z,1011.68
2017-08-25T01:39:26.479Z,1011.7
2017-08-25T01:40:26.465Z,1011.69
2017-08-25T01:41:26.449Z,1011.69
2017-08-25T01:42:26.433Z,1011.67
2017-08-25T01:43:26.420Z,1011.72
2017-08-25T01:44:26.410Z,1011.68
2017-08-25T01:45:26.388Z,1011.71
2017-08-25T01:46:26.379Z,1011.7
2017-08-25T01:47:26.363Z,1011.68
2017-08-25T01:48:26.350Z,1011.71
2017-08-25T01:49:26.332Z,1011.73
2017-08-25T01:50:26.313Z,1011.73
2017-08-25T01:51:26.301Z,1011.71
2017-08-25T01:52:26.283Z,1011.7
2017-08-25T01:53:26.268Z,1011.73
2017-08-25T01:54:26.254Z,1011.69
2017-08-25T01:55:26.233Z,1011.68
2017-08-25T01:56:26.220Z,1011.73
2017-08-25T01:57:26.213Z,1011.67
2017-08-25T01:58:26.192Z,1011.7
2017-08-25T01:59:26.176Z,1011.71
2017-08-25T02:00:26.160Z,1011.7
2017-08-25T02:01:26.142Z,1011.69
2017-08-25T02:02:26.129Z,1011.69
2017-08-25T02:03:26.112Z,1011.66
2017-08-25T02:04:26.095Z,1011.68
2017-08-25T02:05:26.079Z,1011.68
2017-08-25T02:06:26.066Z,1011.65
2017-08-25T02:07:26.049Z,1011.69
2017-08-25T02:08:26.033Z,1011.72
2017-08-25T02:09:26.019Z,1011.71
2017-08-25T02:10:26.003Z,1011.73
2017-08-25T02:11:25.989Z,1011.73
2017-08-25T02:12:25.970Z,1011.73
2017-08-25T02:13:25.954Z,1011.72
2017-08-25T02:14:25.938Z,1011.7
2017-08-25T02:15:25.922Z,1011.68
2017-08-25T02:16:25.909Z,1011.64
2017-08-25T02:17:25.892Z,1011.63
2017-08-25T02:18:25.876Z,1011.61
2017-08-25T02:19:25.860Z,1011.64
2017-08-25T02:20:25.847Z,1011.64
2017-08-25T02:21:25.830Z,1011.63
2017-08-25T02:22:25.819Z,1011.61
2017-08-25T02:23:25.799Z,1011.6
2017-08-25T02:24:25.789Z,1011.63
2017-08-25T02:25:25.769Z,1011.61
2017-08-25T02:26:25.750Z,1011.6
2017-08-25T02:27:25.741Z,1011.62
2017-08-25T02:28:25.722Z,1011.59
2017-08-25T02:29:25.708Z,1011.62
2017-08-25T02:30:25.689Z,1011.6
2017-08-25T02:31:25.683Z,1011.63
2017-08-25T02:32:25.660Z,1011.64
2017-08-25T02:33:25.744Z,1011.63
2017-08-25T02:34:25.629Z,1011.62
2017-08-25T02:35:25.614Z,1011.61
2017-08-25T02:36:25.602Z,1011.64
2017-08-25T02:37:25.678Z,1011.61
2017-08-25T02:38:25.569Z,1011.59
2017-08-25T02:39:25.549Z,1011.6
2017-08-25T02:40:25.534Z,1011.61
2017-08-25T02:41:25.547Z,1011.59
2017-08-25T02:42:25.500Z,1011.58
2017-08-25T02:43:25.485Z,1011.59
2017-08-25T02:44:25.478Z,1011.62
2017-08-25T02:45:25.558Z,1011.63
2017-08-25T02:46:25.443Z,1011.64
2017-08-25T02:47:25.479Z,1011.63
2017-08-25T02:48:25.408Z,1011.65
2017-08-25T02:49:25.397Z,1011.65
2017-08-25T02:50:25.379Z,1011.62
2017-08-25T02:51:25.409Z,1011.62
2017-08-25T02:52:25.344Z,1011.64
2017-08-25T02:53:25.350Z,1011.63
2017-08-25T02:54:25.320Z,1011.64
2017-08-25T02:55:25.300Z,1011.69
2017-08-25T02:56:25.290Z,1011.66
2017-08-25T02:57:25.270Z,1011.66
2017-08-25T02:58:25.250Z,1011.62
2017-08-25T02:59:25.241Z,1011.65
2017-08-25T03:00:25.219Z,1011.65
2017-08-25T03:01:25.253Z,1011.67
2017-08-25T03:02:25.190Z,1011.63
2017-08-25T03:03:25.173Z,1011.63
2017-08-25T03:04:25.160Z,1011.61
2017-08-25T03:05:25.139Z,1011.6
2017-08-25T03:06:25.130Z,1011.63
2017-08-25T03:07:25.118Z,1011.62
2017-08-25T03:08:25.090Z,1011.61
2017-08-25T03:09:25.077Z,1011.58
2017-08-25T03:10:25.061Z,1011.61
2017-08-25T03:11:25.051Z,1011.58
2017-08-25T03:12:25.027Z,1011.58
2017-08-25T03:13:25.023Z,1011.59
2017-08-25T03:14:25.000Z,1011.56
2017-08-25T03:15:24.981Z,1011.57
2017-08-25T03:16:24.965Z,1011.63
2017-08-25T03:17:24.957Z,1011.64
2017-08-25T03:18:24.940Z,1011.68
2017-08-25T03:19:24.914Z,1011.69
2017-08-25T03:20:24.900Z,1011.66
2017-08-25T03:21:24.884Z,1011.67
2017-08-25T03:22:24.871Z,1011.66
2017-08-25T03:23:24.850Z,1011.61
2017-08-25T03:24:24.840Z,1011.65
2017-08-25T03:25:24.820Z,1011.66
2017-08-25T03:26:24.802Z,1011.67
2017-08-25T03:27:24.787Z,1011.66
2017-08-25T03:28:24.773Z,1011.64
2017-08-25T03:29:24.760Z,1011.67
2017-08-25T03:30:24.737Z,1011.67
2017-08-25T03:31:24.731Z,1011.67
2017-08-25T03:32:24.707Z,1011.69
2017-08-25T03:33:24.689Z,1011.68
2017-08-25T03:34:24.677Z,1011.69
2017-08-25T03:35:24.660Z,1011.71
2017-08-25T03:36:24.644Z,1011.71
2017-08-25T03:37:24.630Z,1011.72
2017-08-25T03:38:24.614Z,1011.73
2017-08-25T03:39:24.600Z,1011.73
2017-08-25T03:40:24.580Z,1011.74
2017-08-25T03:41:24.570Z,1011.72
2017-08-25T03:42:24.546Z,1011.72
2017-08-25T03:43:24.531Z,1011.73
2017-08-25T03:44:24.521Z,1011.7
2017-08-25T03:45:24.510Z,1011.7
2017-08-25T03:46:24.488Z,1011.7
2017-08-25T03:47:24.470Z,1011.71
2017-08-25T03:48:24.471Z,1011.72
2017-08-25T03:49:24.438Z,1011.71
2017-08-25T03:50:24.416Z,1011.74
2017-08-25T03:51:24.401Z,1011.75
2017-08-25T03:52:24.389Z,1011.74
2017-08-25T03:53:24.370Z,1011.75
2017-08-25T03:54:24.359Z,1011.78
2017-08-25T03:55:24.339Z,1011.8
2017-08-25T03:56:24.320Z,1011.78
2017-08-25T03:57:24.309Z,1011.78
2017-08-25T03:58:24.292Z,1011.77
2017-08-25T03:59:24.276Z,1011.78
2017-08-25T04:00:24.263Z,1011.82
2017-08-25T04:01:24.241Z,1011.79
2017-08-25T04:02:24.226Z,1011.81
2017-08-25T04:03:24.213Z,1011.83
2017-08-25T04:04:24.191Z,1011.83
2017-08-25T04:05:24.179Z,1011.8
2017-08-25T04:06:24.162Z,1011.82
2017-08-25T04:07:24.142Z,1011.82
2017-08-25T04:08:24.130Z,1011.8
2017-08-25T04:09:24.112Z,1011.82
2017-08-25T04:10:24.101Z,1011.8
2017-08-25T04:11:24.078Z,1011.79
2017-08-25T04:12:24.061Z,1011.81
2017-08-25T04:13:24.046Z,1011.79
2017-08-25T04:14:24.031Z,1011.79
2017-08-25T04:15:24.015Z,1011.77
2017-08-25T04:16:24.001Z,1011.81
2017-08-25T04:17:23.983Z,1011.79
2017-08-25T04:18:23.975Z,1011.79
2017-08-25T04:19:23.949Z,1011.81
2017-08-25T04:20:23.937Z,1011.82
2017-08-25T04:21:23.921Z,1011.79
2017-08-25T04:22:23.904Z,1011.8
2017-08-25T04:23:23.887Z,1011.81
2017-08-25T04:24:23.873Z,1011.76
2017-08-25T04:25:23.860Z,1011.8
2017-08-25T04:26:23.837Z,1011.8
2017-08-25T04:27:23.827Z,1011.84
2017-08-25T04:28:23.807Z,1011.86
2017-08-25T04:29:23.789Z,1011.81
2017-08-25T04:30:23.783Z,1011.85
2017-08-25T04:31:23.761Z,1011.86
2017-08-25T04:32:23.742Z,1011.9
2017-08-25T04:33:23.730Z,1011.89
2017-08-25T04:34:23.704Z,1011.9
2017-08-25T04:35:23.688Z,1011.88
2017-08-25T04:36:23.678Z,1011.91
2017-08-25T04:37:23.659Z,1011.94
2017-08-25T04:38:23.649Z,1011.92
2017-08-25T04:39:23.623Z,1011.89
2017-08-25T04:40:23.624Z,1011.91
2017-08-25T04:41:23.600Z,1011.92
2017-08-25T04:42:23.581Z,1011.91
2017-08-25T04:43:23.560Z,1011.9
2017-08-25T04:44:23.547Z,1011.88
2017-08-25T04:45:23.532Z,1011.9
2017-08-25T04:46:23.512Z,1011.85
2017-08-25T04:47:23.500Z,1011.86
2017-08-25T04:48:23.482Z,1011.84
2017-08-25T04:49:23.462Z,1011.88
2017-08-25T04:50:23.451Z,1011.87
2017-08-25T04:51:23.428Z,1011.84
2017-08-25T04:52:23.418Z,1011.87
2017-08-25T04:53:23.401Z,1011.87
2017-08-25T04:54:23.384Z,1011.9
2017-08-25T04:55:23.363Z,1011.89
2017-08-25T04:56:23.352Z,1011.88
2017-08-25T04:57:23.332Z,1011.9
2017-08-25T04:58:23.320Z,1011.94
2017-08-25T04:59:23.300Z,1011.92
2017-08-25T05:00:23.285Z,1011.95
2017-08-25T05:01:23.268Z,1011.9
2017-08-25T05:02:23.351Z,1011.9
2017-08-25T05:03:23.241Z,1011.9
2017-08-25T05:04:23.270Z,1011.89
2017-08-25T05:05:23.199Z,1011.9
2017-08-25T05:06:23.185Z,1011.9
2017-08-25T05:07:23.170Z,1011.92
2017-08-25T05:08:23.161Z,1011.93
2017-08-25T05:09:23.138Z,1011.95
2017-08-25T05:10:23.121Z,1011.9
2017-08-25T05:11:23.108Z,1011.9
2017-08-25T05:12:23.092Z,1011.9
2017-08-25T05:13:23.071Z,1011.88
2017-08-25T05:14:23.060Z,1011.89
2017-08-25T05:15:23.041Z,1011.87
2017-08-25T05:16:23.027Z,1011.92
2017-08-25T05:17:23.010Z,1011.89
2017-08-25T05:18:23.003Z,1011.94
2017-08-25T05:19:22.980Z,1011.93
2017-08-25T05:20:22.977Z,1011.94
2017-08-25T05:21:22.951Z,1011.97
2017-08-25T05:22:22.927Z,1012
2017-08-25T05:23:22.920Z,1012
2017-08-25T05:24:22.901Z,1012.02
2017-08-25T05:25:22.878Z,1011.97
2017-08-25T05:26:22.870Z,1012.02
2017-08-25T05:27:22.850Z,1012.03
2017-08-25T05:28:22.842Z,1012.02
2017-08-25T05:29:22.828Z,1012.01
2017-08-25T05:30:22.804Z,1012.01
2017-08-25T05:31:22.784Z,1012.01
2017-08-25T05:32:22.769Z,1012.01
2017-08-25T05:33:22.758Z,1012.01
2017-08-25T05:34:22.743Z,1012.05
2017-08-25T05:35:22.718Z,1012.03
2017-08-25T05:36:22.710Z,1012.02
2017-08-25T05:37:22.693Z,1012.07
2017-08-25T05:38:22.672Z,1012.03
2017-08-25T05:39:22.660Z,1012.05
2017-08-25T05:40:22.641Z,1012.06
2017-08-25T05:41:22.631Z,1012.05
2017-08-25T05:42:22.611Z,1012.07
2017-08-25T05:43:22.598Z,1012.05
2017-08-25T05:44:22.580Z,1012.1
2017-08-25T05:45:22.574Z,1012.1
2017-08-25T05:46:22.550Z,1012.15
2017-08-25T05:47:22.531Z,1012.1
2017-08-25T05:48:22.520Z,1012.14
2017-08-25T05:49:22.501Z,1012.14
2017-08-25T05:50:22.483Z,1012.12
2017-08-25T05:51:22.470Z,1012.1
2017-08-25T05:52:22.459Z,1012.14
2017-08-25T05:53:22.446Z,1012.09
2017-08-25T05:54:22.420Z,1012.09
2017-08-25T05:55:22.423Z,1012.09
2017-08-25T05:56:22.391Z,1012.06
2017-08-25T05:57:22.376Z,1012.07
2017-08-25T05:58:22.361Z,1012.03
2017-08-25T05:59:22.356Z,1012.01
2017-08-25T06:00:22.326Z,1012.03
2017-08-25T06:01:22.310Z,1012.04
2017-08-25T06:02:22.299Z,1012.04
2017-08-25T06:03:22.289Z,1012.05
2017-08-25T06:04:22.270Z,1012.06
2017-08-25T06:05:22.254Z,1012.02
2017-08-25T06:06:22.240Z,1012.05
2017-08-25T06:07:22.219Z,1012.06
2017-08-25T06:08:22.206Z,1012.05
2017-08-25T06:09:22.190Z,1012.08
2017-08-25T06:10:22.174Z,1012.07
2017-08-25T06:11:22.163Z,1012.09
2017-08-25T06:12:22.156Z,1012.12
2017-08-25T06:13:22.130Z,1012.12
2017-08-25T06:14:22.112Z,1012.09
2017-08-25T06:15:22.102Z,1012.13
2017-08-25T06:16:22.092Z,1012.11
2017-08-25T06:17:22.063Z,1012.16
2017-08-25T06:18:22.050Z,1012.13
2017-08-25T06:19:22.042Z,1012.16
2017-08-25T06:20:22.020Z,1012.15
2017-08-25T06:21:22.006Z,1012.13
2017-08-25T06:22:21.990Z,1012.1
2017-08-25T06:23:21.981Z,1012.17
2017-08-25T06:24:21.961Z,1012.15
2017-08-25T06:25:21.940Z,1012.16
2017-08-25T06:26:21.927Z,1012.18
2017-08-25T06:27:21.910Z,1012.22
2017-08-25T06:28:21.898Z,1012.22
2017-08-25T06:29:21.880Z,1012.27
2017-08-25T06:30:21.866Z,1012.26
2017-08-25T06:31:21.860Z,1012.27
2017-08-25T06:32:21.836Z,1012.26
2017-08-25T06:33:21.835Z,1012.3
2017-08-25T06:34:21.802Z,1012.33
2017-08-25T06:35:21.792Z,1012.35
2017-08-25T06:36:21.782Z,1012.33
2017-08-25T06:37:21.761Z,1012.39
2017-08-25T06:38:21.751Z,1012.4
2017-08-25T06:39:21.742Z,1012.41
2017-08-25T06:40:21.719Z,1012.37
2017-08-25T06:41:21.708Z,1012.42
2017-08-25T06:42:21.685Z,1012.44
2017-08-25T06:43:21.672Z,1012.47
2017-08-25T06:44:21.655Z,1012.49
2017-08-25T06:45:21.642Z,1012.49
2017-08-25T06:46:21.625Z,1012.51
2017-08-25T06:47:21.611Z,1012.55
2017-08-25T06:48:21.600Z,1012.52
2017-08-25T06:49:21.584Z,1012.49
2017-08-25T06:50:21.573Z,1012.52
2017-08-25T06:51:21.551Z,1012.59
2017-08-25T06:52:21.537Z,1012.52
2017-08-25T06:53:21.524Z,1012.52
2017-08-25T06:54:21.516Z,1012.48
2017-08-25T06:55:21.501Z,1012.48
2017-08-25T06:56:21.477Z,1012.53
2017-08-25T06:57:21.533Z,1012.51
2017-08-25T06:58:21.451Z,1012.58
2017-08-25T06:59:21.445Z,1012.53
2017-08-25T07:00:21.431Z,1012.51
2017-08-25T07:01:21.412Z,1012.48
2017-08-25T07:02:21.397Z,1012.51
2017-08-25T07:03:21.381Z,1012.5
2017-08-25T07:04:21.368Z,1012.53
2017-08-25T07:05:21.356Z,1012.51
2017-08-25T07:06:21.337Z,1012.52
2017-08-25T07:07:21.382Z,1012.53
2017-08-25T07:08:21.320Z,1012.58
2017-08-25T07:09:21.302Z,1012.6
2017-08-25T07:10:21.288Z,1012.62
2017-08-25T07:11:21.279Z,1012.64
2017-08-25T07:12:21.260Z,1012.64
2017-08-25T07:13:21.249Z,1012.64
2017-08-25T07:14:21.235Z,1012.66
2017-08-25T07:15:21.223Z,1012.71
2017-08-25T07:16:21.220Z,1012.78
2017-08-25T07:17:21.203Z,1012.77
2017-08-25T07:18:21.190Z,1012.77
2017-08-25T07:19:21.182Z,1012.72
2017-08-25T07:20:21.169Z,1012.8
2017-08-25T07:21:21.151Z,1012.73
2017-08-25T07:22:21.143Z,1012.74
2017-08-25T07:23:21.131Z,1012.82
2017-08-25T07:24:21.123Z,1012.88
2017-08-25T07:25:21.107Z,1012.76
2017-08-25T07:26:21.104Z,1012.84
2017-08-25T07:27:21.092Z,1012.84
2017-08-25T07:28:21.073Z,1012.95
2017-08-25T07:29:21.061Z,1013.11
2017-08-25T07:30:21.051Z,1013.08
2017-08-25T07:31:21.039Z,1013.11
2017-08-25T07:32:21.031Z,1013.12
2017-08-25T07:33:21.022Z,1013.16
2017-08-25T07:34:21.023Z,1013.18
2017-08-25T07:35:20.999Z,1013.26
2017-08-25T07:36:20.992Z,1013.33
2017-08-25T07:37:20.978Z,1013.41
2017-08-25T07:38:20.983Z,1013.46
2017-08-25T07:39:20.959Z,1013.45
2017-08-25T07:40:20.950Z,1013.46
2017-08-25T07:41:20.942Z,1013.35
2017-08-25T07:42:20.931Z,1013.19
2017-08-25T07:43:20.929Z,1013.15
2017-08-25T07:44:20.922Z,1013.13
2017-08-25T07:45:20.910Z,1013.11
2017-08-25T07:46:20.901Z,1013.06
2017-08-25T07:47:20.900Z,1013.1
2017-08-25T07:48:20.890Z,1013.06
2017-08-25T07:49:20.888Z,1013.06
2017-08-25T07:50:20.880Z,1013.1
2017-08-25T07:51:20.870Z,1013.08
2017-08-25T07:52:20.877Z,1013.12
2017-08-25T07:53:20.862Z,1013.1
2017-08-25T07:54:20.861Z,1013.12
2017-08-25T07:55:20.860Z,1013.15
2017-08-25T07:56:20.850Z,1013.16
2017-08-25T07:57:20.844Z,1013.19
2017-08-25T07:58:20.841Z,1013.17
2017-08-25T07:59:20.836Z,1013.18
2017-08-25T08:00:20.833Z,1013.16
2017-08-25T08:01:20.830Z,1013.14
2017-08-25T08:02:20.830Z,1013.19
2017-08-25T08:03:20.817Z,1013.18
2017-08-25T08:04:20.816Z,1013.2
2017-08-25T08:05:20.810Z,1013.17
2017-08-25T08:06:20.815Z,1013.16
2017-08-25T08:07:20.811Z,1013.18
2017-08-25T08:08:20.814Z,1013.17
2017-08-25T08:09:20.799Z,1013.17
2017-08-25T08:10:20.795Z,1013.17
2017-08-25T08:11:20.790Z,1013.14
2017-08-25T08:12:20.784Z,1013.17
2017-08-25T08:13:20.788Z,1013.17
2017-08-25T08:14:20.786Z,1013.18
2017-08-25T08:15:20.781Z,1013.19
2017-08-25T08:16:20.790Z,1013.14
2017-08-25T08:17:20.778Z,1013.19
2017-08-25T08:18:20.777Z,1013.18
2017-08-25T08:19:20.779Z,1013.11
2017-08-25T08:20:20.780Z,1013.15
2017-08-25T08:21:20.769Z,1013.14
2017-08-25T08:22:20.769Z,1013.15
2017-08-25T08:23:20.772Z,1013.16
2017-08-25T08:24:20.801Z,1013.17
2017-08-25T08:25:20.773Z,1013.12
2017-08-25T08:26:20.771Z,1013.12
2017-08-25T08:27:20.769Z,1013.13
2017-08-25T08:28:20.762Z,1013.07
2017-08-25T08:29:20.759Z,1013.11
2017-08-25T08:30:20.758Z,1013.1
2017-08-25T08:31:20.758Z,1013.01
2017-08-25T08:32:20.758Z,1013.06
2017-08-25T08:33:20.763Z,1013.1
2017-08-25T08:34:20.759Z,1012.98
2017-08-25T08:35:20.755Z,1013.07
2017-08-25T08:36:20.752Z,1013.03
2017-08-25T08:37:20.748Z,1013.13
2017-08-25T08:38:20.751Z,1013.14
2017-08-25T08:39:20.746Z,1013.12
2017-08-25T08:40:20.740Z,1013.08
2017-08-25T08:41:20.740Z,1013.1
2017-08-25T08:42:20.742Z,1013.11
2017-08-25T08:43:20.741Z,1013.12
2017-08-25T08:44:20.730Z,1013.07
2017-08-25T08:45:20.728Z,1013.11
2017-08-25T08:46:20.731Z,1013.08
2017-08-25T08:47:20.734Z,1013.06
2017-08-25T08:48:20.733Z,1013.05
2017-08-25T08:49:20.731Z,1012.94
2017-08-25T08:50:20.732Z,1012.97
2017-08-25T08:51:20.731Z,1012.91
2017-08-25T08:52:20.719Z,1012.99
2017-08-25T08:53:20.720Z,1013
2017-08-25T08:54:20.721Z,1012.96
2017-08-25T08:55:20.719Z,1012.99
2017-08-25T08:56:20.720Z,1012.96
2017-08-25T08:57:20.720Z,1013
2017-08-25T08:58:20.721Z,1013.04
2017-08-25T08:59:20.719Z,1013.04
2017-08-25T09:00:20.707Z,1013.05
2017-08-25T09:01:20.710Z,1013.07
2017-08-25T09:02:20.708Z,1013.04
2017-08-25T09:03:20.706Z,1013.03
2017-08-25T09:04:20.705Z,1013.04
2017-08-25T09:05:20.705Z,1013.01
2017-08-25T09:06:20.707Z,1013.02
2017-08-25T09:07:20.704Z,1013.02
2017-08-25T09:08:20.709Z,1013.05
2017-08-25T09:09:20.698Z,1013.04
2017-08-25T09:10:20.698Z,1013.04
2017-08-25T09:11:20.701Z,1013.08
2017-08-25T09:12:20.700Z,1013.08
2017-08-25T09:13:20.702Z,1013.07
2017-08-25T09:14:20.695Z,1013.07
2017-08-25T09:15:20.700Z,1013.09
2017-08-25T09:16:20.700Z,1012.99
2017-08-25T09:17:20.701Z,1013.07
2017-08-25T09:18:20.699Z,1013.04
2017-08-25T09:19:20.699Z,1013.06
2017-08-25T09:20:20.699Z,1013.01
2017-08-25T09:21:20.701Z,1013.03
2017-08-25T09:22:20.701Z,1013.08
2017-08-25T09:23:20.699Z,1013.09
2017-08-25T09:24:20.699Z,1013.08
2017-08-25T09:25:20.700Z,1013.02
2017-08-25T09:26:20.698Z,1013.06
2017-08-25T09:27:20.708Z,1013.14
2017-08-25T09:28:20.699Z,1013.16
2017-08-25T09:29:20.694Z,1013.16
2017-08-25T09:30:20.699Z,1013.16
2017-08-25T09:31:20.700Z,1013.13
2017-08-25T09:32:20.696Z,1013.16
2017-08-25T09:33:20.692Z,1013.13
2017-08-25T09:34:20.692Z,1013.14
2017-08-25T09:35:20.689Z,1013.09
2017-08-25T09:36:20.689Z,1013.05
2017-08-25T09:37:20.694Z,1013.01
2017-08-25T09:38:20.689Z,1013.02
2017-08-25T09:39:20.691Z,1013.09
2017-08-25T09:40:20.691Z,1013.07
2017-08-25T09:41:20.692Z,1013.06
2017-08-25T09:42:20.691Z,1013.07
2017-08-25T09:43:20.690Z,1013.04
2017-08-25T09:44:20.690Z,1013.06
2017-08-25T09:45:20.689Z,1013.06
2017-08-25T09:46:20.690Z,1013.12
2017-08-25T09:47:20.698Z,1013.08
2017-08-25T09:48:20.689Z,1013.1
2017-08-25T09:49:20.687Z,1013.08
2017-08-25T09:50:20.689Z,1013.07
2017-08-25T09:51:20.690Z,1013.08
2017-08-25T09:52:20.691Z,1013.05
2017-08-25T09:53:20.689Z,1013.1
2017-08-25T09:54:20.684Z,1013.12
2017-08-25T09:55:20.683Z,1013.06
2017-08-25T09:56:20.683Z,1013.09
2017-08-25T09:57:20.679Z,1013.07
2017-08-25T09:58:20.678Z,1013.07
2017-08-25T09:59:20.681Z,1013.08
2017-08-25T10:00:20.679Z,1013.07
2017-08-25T10:01:20.679Z,1013.09
2017-08-25T10:02:20.681Z,1013.09
2017-08-25T10:03:20.679Z,1013.08
2017-08-25T10:04:20.679Z,1013.1
2017-08-25T10:05:20.668Z,1013.11
2017-08-25T10:06:20.667Z,1013.11
2017-08-25T10:07:20.670Z,1013.08
2017-08-25T10:08:20.662Z,1013.07
2017-08-25T10:09:20.659Z,1013.07
2017-08-25T10:10:20.660Z,1013.06
2017-08-25T10:11:20.660Z,1013.1
2017-08-25T10:12:20.648Z,1013.11
2017-08-25T10:13:20.646Z,1013.08
2017-08-25T10:14:20.641Z,1013.09
2017-08-25T10:15:20.638Z,1013.02
2017-08-25T10:16:20.644Z,1013.01
2017-08-25T10:17:20.634Z,1013.01
2017-08-25T10:18:20.629Z,1012.99
2017-08-25T10:19:20.629Z,1012.98
2017-08-25T10:20:20.619Z,1012.94
2017-08-25T10:21:20.620Z,1012.97
2017-08-25T10:22:20.618Z,1012.9
2017-08-25T10:23:20.610Z,1012.92
2017-08-25T10:24:20.605Z,1012.91
2017-08-25T10:25:20.600Z,1012.88
2017-08-25T10:26:20.605Z,1012.84
2017-08-25T10:27:20.597Z,1012.84
2017-08-25T10:28:20.587Z,1012.77
2017-08-25T10:29:20.587Z,1012.78
2017-08-25T10:30:20.580Z,1012.74
2017-08-25T10:31:20.571Z,1012.73
2017-08-25T10:32:20.564Z,1012.83
2017-08-25T10:33:20.557Z,1012.79
2017-08-25T10:34:20.558Z,1012.78
2017-08-25T10:35:20.558Z,1012.75
2017-08-25T10:36:20.547Z,1012.75
2017-08-25T10:37:20.537Z,1012.72
2017-08-25T10:38:20.529Z,1012.74
2017-08-25T10:39:20.526Z,1012.74
2017-08-25T10:40:20.530Z,1012.7
2017-08-25T10:41:20.519Z,1012.7
2017-08-25T10:42:20.520Z,1012.7
2017-08-25T10:43:20.511Z,1012.71
2017-08-25T10:44:20.498Z,1012.68
2017-08-25T10:45:20.488Z,1012.66
2017-08-25T10:46:20.491Z,1012.66
2017-08-25T10:47:20.480Z,1012.67
2017-08-25T10:48:20.474Z,1012.65
2017-08-25T10:49:20.471Z,1012.64
2017-08-25T10:50:20.517Z,1012.68
2017-08-25T10:51:20.457Z,1012.67
2017-08-25T10:52:20.498Z,1012.64
2017-08-25T10:53:20.446Z,1012.63
2017-08-25T10:54:20.440Z,1012.63
2017-08-25T10:55:20.438Z,1012.63
2017-08-25T10:56:20.427Z,1012.59
2017-08-25T10:57:20.421Z,1012.63
2017-08-25T10:58:20.418Z,1012.61
2017-08-25T10:59:20.409Z,1012.57
2017-08-25T11:00:20.406Z,1012.52
2017-08-25T11:01:20.398Z,1012.56
2017-08-25T11:02:20.389Z,1012.56
2017-08-25T11:03:20.390Z,1012.58
2017-08-25T11:04:20.380Z,1012.57
2017-08-25T11:05:20.367Z,1012.56
2017-08-25T11:06:20.368Z,1012.49
2017-08-25T11:07:20.358Z,1012.52
2017-08-25T11:08:20.356Z,1012.5
2017-08-25T11:09:20.346Z,1012.5
2017-08-25T11:10:20.338Z,1012.5
2017-08-25T11:11:20.330Z,1012.53
2017-08-25T11:12:20.332Z,1012.54
2017-08-25T11:13:20.314Z,1012.55
2017-08-25T11:14:20.317Z,1012.53
2017-08-25T11:15:20.304Z,1012.59
2017-08-25T11:16:20.300Z,1012.6
2017-08-25T11:17:20.297Z,1012.54
2017-08-25T11:18:20.289Z,1012.54
2017-08-25T11:19:20.279Z,1012.51
2017-08-25T11:20:20.279Z,1012.51
2017-08-25T11:21:20.274Z,1012.5
2017-08-25T11:22:20.257Z,1012.52
2017-08-25T11:23:20.254Z,1012.51
2017-08-25T11:24:20.247Z,1012.5
2017-08-25T11:25:20.242Z,1012.53
2017-08-25T11:26:20.241Z,1012.5
2017-08-25T11:27:20.300Z,1012.55
2017-08-25T11:28:20.224Z,1012.54
2017-08-25T11:29:20.268Z,1012.51
2017-08-25T11:30:20.212Z,1012.53
2017-08-25T11:31:20.207Z,1012.52
2017-08-25T11:32:20.198Z,1012.54
2017-08-25T11:33:20.200Z,1012.52
2017-08-25T11:34:20.185Z,1012.45
2017-08-25T11:35:20.187Z,1012.46
2017-08-25T11:36:20.180Z,1012.4
2017-08-25T11:37:20.169Z,1012.41
2017-08-25T11:38:20.164Z,1012.42
2017-08-25T11:39:20.157Z,1012.44
2017-08-25T11:40:20.158Z,1012.4
2017-08-25T11:41:20.147Z,1012.42
2017-08-25T11:42:20.149Z,1012.4
2017-08-25T11:43:20.139Z,1012.42
2017-08-25T11:44:20.127Z,1012.41
2017-08-25T11:45:20.124Z,1012.36
2017-08-25T11:46:20.116Z,1012.38
2017-08-25T11:47:20.116Z,1012.34
2017-08-25T11:48:20.111Z,1012.36
2017-08-25T11:49:20.099Z,1012.32
2017-08-25T11:50:20.097Z,1012.32
2017-08-25T11:51:20.088Z,1012.33
2017-08-25T11:52:20.080Z,1012.32
2017-08-25T11:53:20.074Z,1012.3
2017-08-25T11:54:20.072Z,1012.3
2017-08-25T11:55:20.055Z,1012.29
2017-08-25T11:56:20.050Z,1012.28
2017-08-25T11:57:20.047Z,1012.25
2017-08-25T11:58:20.049Z,1012.26
2017-08-25T11:59:20.039Z,1012.25
2017-08-25T12:00:20.150Z,1012.24
2017-08-25T12:01:20.025Z,1012.26
2017-08-25T12:02:20.028Z,1012.23
2017-08-25T12:03:20.007Z,1012.22
2017-08-25T12:04:20.008Z,1012.27
2017-08-25T12:05:19.997Z,1012.27
2017-08-25T12:06:20.038Z,1012.28
2017-08-25T12:07:19.984Z,1012.27
2017-08-25T12:08:20.027Z,1012.25